createdAt,value
2022-12-11T00:00:40.083Z,26.98
2022-12-11T00:03:10.228Z,27.47
2022-12-11T00:05:40.633Z,28.00
2022-12-11T00:08:07.364Z,30.52
2022-12-11T00:10:37.660Z,29.80
2022-12-11T00:13:04.596Z,27.00
2022-12-11T00:15:31.002Z,31.85
2022-12-11T00:17:57.401Z,26.52
2022-12-11T00:20:23.895Z,27.83
2022-12-11T00:22:50.446Z,30.20
2022-12-11T00:25:16.978Z,24.67
2022-12-11T00:27:45.829Z,26.92
2022-12-11T00:30:12.650Z,29.52
2022-12-11T00:32:39.053Z,28.33
2022-12-11T00:35:05.685Z,30.08
2022-12-11T00:37:32.244Z,29.42
2022-12-11T00:39:58.851Z,29.20
2022-12-11T00:42:27.579Z,29.10
2022-12-11T00:44:54.859Z,22.58
2022-12-11T00:47:21.606Z,27.88
2022-12-11T00:49:49.916Z,29.02
2022-12-11T00:52:17.962Z,29.13
2022-12-11T00:54:44.713Z,29.75
2022-12-11T00:57:11.135Z,25.70
2022-12-11T00:59:37.754Z,26.75
2022-12-11T01:02:04.320Z,29.55
2022-12-11T01:04:30.701Z,29.45
2022-12-11T01:06:57.121Z,26.00
2022-12-11T01:09:42.028Z,32.28
2022-12-11T01:12:08.468Z,31.50
2022-12-11T01:14:34.991Z,28.23
2022-12-11T01:17:01.437Z,30.58
2022-12-11T01:19:28.506Z,30.00
2022-12-11T01:21:57.197Z,30.45
2022-12-11T01:24:23.672Z,29.60
2022-12-11T01:26:50.190Z,28.15
2022-12-11T01:29:16.570Z,28.23
2022-12-11T01:31:42.973Z,27.48
2022-12-11T01:34:09.404Z,29.55
2022-12-11T01:36:35.819Z,28.65
2022-12-11T01:39:02.207Z,28.38
2022-12-11T01:41:28.607Z,27.88
2022-12-11T01:43:56.985Z,28.25
2022-12-11T01:46:23.790Z,27.05
2022-12-11T01:48:50.308Z,29.77
2022-12-11T01:51:17.212Z,30.42
2022-12-11T01:53:46.356Z,29.17
2022-12-11T01:56:13.001Z,30.58
2022-12-11T01:58:43.171Z,33.45
2022-12-11T02:01:25.123Z,31.55
2022-12-11T02:03:52.371Z,32.80
2022-12-11T02:06:37.658Z,31.88
2022-12-11T02:09:10.508Z,31.00
2022-12-11T02:11:51.487Z,29.52
2022-12-11T02:14:36.619Z,28.40
2022-12-11T02:17:47.711Z,33.05
2022-12-11T02:20:23.892Z,31.73
2022-12-11T02:23:08.674Z,30.20
2022-12-11T02:25:37.166Z,31.63
2022-12-11T02:28:20.335Z,34.50
2022-12-11T02:30:51.026Z,32.92
2022-12-11T02:33:28.904Z,29.80
2022-12-11T02:35:56.101Z,28.60
2022-12-11T02:38:29.296Z,36.38
2022-12-11T02:40:56.756Z,29.70
2022-12-11T02:43:23.605Z,30.10
2022-12-11T02:45:50.959Z,27.90
2022-12-11T02:48:18.163Z,23.83
2022-12-11T02:50:47.665Z,24.48
2022-12-11T02:53:18.160Z,21.63
2022-12-11T02:55:45.759Z,24.92
2022-12-11T02:58:18.665Z,26.48
2022-12-11T03:00:45.556Z,27.25
2022-12-11T03:03:13.077Z,28.42
2022-12-11T03:05:40.733Z,29.00
2022-12-11T03:08:07.403Z,28.42
2022-12-11T03:10:33.877Z,29.15
2022-12-11T03:13:00.583Z,31.58
2022-12-11T03:15:59.364Z,27.73
2022-12-11T03:19:12.921Z,28.33
2022-12-11T03:22:06.628Z,24.55
2022-12-11T03:24:46.423Z,25.67
2022-12-11T03:27:20.281Z,26.27
2022-12-11T03:30:14.567Z,23.45
2022-12-11T03:32:48.751Z,25.13
2022-12-11T03:35:23.449Z,25.23
2022-12-11T03:37:51.593Z,26.85
2022-12-11T03:40:20.438Z,26.52
2022-12-11T03:42:50.059Z,26.15
2022-12-11T03:45:18.322Z,26.67
2022-12-11T03:47:45.648Z,31.30
2022-12-11T03:50:13.441Z,27.35
2022-12-11T03:52:46.212Z,30.63
2022-12-11T03:55:14.259Z,30.00
2022-12-11T03:57:40.812Z,29.63
2022-12-11T04:00:10.735Z,29.73
2022-12-11T04:02:37.289Z,33.53
2022-12-11T04:05:03.913Z,34.25
2022-12-11T04:07:31.232Z,32.88
2022-12-11T04:09:57.763Z,29.70
2022-12-11T04:12:24.132Z,29.08
2022-12-11T04:15:02.662Z,33.08
2022-12-11T04:17:49.921Z,31.95
2022-12-11T04:20:35.609Z,31.95
2022-12-11T04:23:32.765Z,29.17
2022-12-11T04:26:12.925Z,27.65
2022-12-11T04:28:40.407Z,29.67
2022-12-11T04:31:11.459Z,31.60
2022-12-11T04:33:37.914Z,31.08
2022-12-11T04:36:04.503Z,30.30
2022-12-11T04:38:30.913Z,31.10
2022-12-11T04:41:06.266Z,31.70
2022-12-11T04:43:32.704Z,29.73
2022-12-11T04:46:04.499Z,31.90
2022-12-11T04:48:31.026Z,28.52
2022-12-11T04:50:57.563Z,30.92
2022-12-11T04:53:24.360Z,29.40
2022-12-11T04:55:50.966Z,30.20
2022-12-11T04:58:17.520Z,29.92
2022-12-11T05:00:44.069Z,32.10
2022-12-11T05:03:10.602Z,30.02
2022-12-11T05:05:37.224Z,30.40
2022-12-11T05:08:05.314Z,28.30
2022-12-11T05:10:31.782Z,28.52
2022-12-11T05:12:58.146Z,27.80
2022-12-11T05:15:24.532Z,27.95
2022-12-11T05:17:51.018Z,28.17
2022-12-11T05:20:17.657Z,28.40
2022-12-11T05:22:44.019Z,29.05
2022-12-11T05:25:11.141Z,28.85
2022-12-11T05:27:37.773Z,28.80
2022-12-11T05:30:05.351Z,26.75
2022-12-11T05:32:31.787Z,27.05
2022-12-11T05:34:58.140Z,28.05
2022-12-11T05:37:24.614Z,25.77
2022-12-11T05:39:51.025Z,28.20
2022-12-11T05:42:17.416Z,23.60
2022-12-11T05:44:43.806Z,25.35
2022-12-11T05:47:10.519Z,24.40
2022-12-11T05:49:37.201Z,26.85
2022-12-11T05:52:03.718Z,25.08
2022-12-11T05:54:30.273Z,23.63
2022-12-11T05:56:56.663Z,22.05
2022-12-11T05:59:23.237Z,24.88
2022-12-11T06:01:49.750Z,21.77
2022-12-11T06:04:16.276Z,22.35
2022-12-11T06:06:43.769Z,25.42
2022-12-11T06:09:14.163Z,24.10
2022-12-11T06:11:40.620Z,22.92
2022-12-11T06:14:07.024Z,22.65
2022-12-11T06:16:33.527Z,26.35
2022-12-11T06:19:00.082Z,25.73
2022-12-11T06:21:29.861Z,26.00
2022-12-11T06:23:57.525Z,25.52
2022-12-11T06:26:24.215Z,26.67
2022-12-11T06:28:51.249Z,26.10
2022-12-11T06:31:18.269Z,24.23
2022-12-11T06:33:44.791Z,26.52
2022-12-11T06:36:16.383Z,23.85
2022-12-11T06:38:43.096Z,25.90
2022-12-11T06:41:09.847Z,26.77
2022-12-11T06:43:37.840Z,25.33
2022-12-11T06:46:22.576Z,26.90
2022-12-11T06:48:49.560Z,25.35
2022-12-11T06:51:18.556Z,25.70
2022-12-11T06:53:45.530Z,24.90
2022-12-11T06:56:14.081Z,27.80
2022-12-11T06:58:41.303Z,26.17
2022-12-11T07:01:37.568Z,26.40
2022-12-11T07:04:04.000Z,24.98
2022-12-11T07:06:31.084Z,26.15
2022-12-11T07:08:57.501Z,25.73
2022-12-11T07:11:23.991Z,28.83
2022-12-11T07:13:50.418Z,26.88
2022-12-11T07:16:17.609Z,28.08
2022-12-11T07:18:47.611Z,26.48
2022-12-11T07:21:14.513Z,27.02
2022-12-11T07:23:41.675Z,28.33
2022-12-11T07:26:10.719Z,31.65
2022-12-11T07:28:37.165Z,28.20
2022-12-11T07:31:24.970Z,29.02
2022-12-11T07:33:54.052Z,26.75
2022-12-11T07:36:21.139Z,27.73
2022-12-11T07:38:47.541Z,28.50
2022-12-11T07:41:15.181Z,27.05
2022-12-11T07:43:42.270Z,28.92
2022-12-11T07:46:12.488Z,26.20
2022-12-11T07:48:40.539Z,29.23
2022-12-11T07:51:15.074Z,28.25
2022-12-11T07:53:42.485Z,26.48
2022-12-11T07:56:09.016Z,26.13
2022-12-11T07:58:36.446Z,26.27
2022-12-11T08:01:02.957Z,28.35
2022-12-11T08:03:29.385Z,27.23
2022-12-11T08:05:55.853Z,27.85
2022-12-11T08:08:22.298Z,25.20
2022-12-11T08:10:48.681Z,28.38
2022-12-11T08:13:15.323Z,25.60
2022-12-11T08:15:41.712Z,28.80
2022-12-11T08:18:08.112Z,25.58
2022-12-11T08:20:34.553Z,25.42
2022-12-11T08:23:00.988Z,27.35
2022-12-11T08:25:27.389Z,25.50
2022-12-11T08:27:53.810Z,24.92
2022-12-11T08:30:20.207Z,24.45
2022-12-11T08:32:46.639Z,23.65
2022-12-11T08:35:13.245Z,23.20
2022-12-11T08:37:40.091Z,22.92
2022-12-11T08:40:07.315Z,23.48
2022-12-11T08:42:33.889Z,23.35
2022-12-11T08:45:00.276Z,21.38
2022-12-11T08:47:27.093Z,22.67
2022-12-11T08:49:53.491Z,22.65
2022-12-11T08:52:19.890Z,22.08
2022-12-11T08:54:46.491Z,21.38
2022-12-11T08:57:13.024Z,21.35
2022-12-11T08:59:39.444Z,22.48
2022-12-11T09:02:06.511Z,21.88
2022-12-11T09:04:32.966Z,21.23
2022-12-11T09:06:59.348Z,22.40
2022-12-11T09:09:25.796Z,19.77
2022-12-11T09:11:52.337Z,20.90
2022-12-11T09:14:18.754Z,20.80
2022-12-11T09:16:45.200Z,20.83
2022-12-11T09:19:16.376Z,22.35
2022-12-11T09:21:43.644Z,19.88
2022-12-11T09:24:11.131Z,20.42
2022-12-11T09:26:37.947Z,19.27
2022-12-11T09:29:05.687Z,18.85
2022-12-11T09:31:34.622Z,21.23
2022-12-11T09:34:06.153Z,21.25
2022-12-11T09:36:32.791Z,19.08
2022-12-11T09:39:04.737Z,19.23
2022-12-11T09:41:38.732Z,21.13
2022-12-11T09:44:08.568Z,20.83
2022-12-11T09:46:35.945Z,22.48
2022-12-11T09:49:04.448Z,19.08
2022-12-11T09:51:38.175Z,21.48
2022-12-11T09:54:04.746Z,20.00
2022-12-11T09:56:49.451Z,23.02
2022-12-11T09:59:30.664Z,21.67
2022-12-11T10:02:29.806Z,21.50
2022-12-11T10:05:17.141Z,21.38
2022-12-11T10:07:52.160Z,21.15
2022-12-11T10:10:44.541Z,21.42
2022-12-11T10:13:34.607Z,22.10
2022-12-11T10:16:28.678Z,17.88
2022-12-11T10:18:55.806Z,22.35
2022-12-11T10:21:22.542Z,20.35
2022-12-11T10:24:02.675Z,18.70
2022-12-11T10:26:29.474Z,19.37
2022-12-11T10:29:00.541Z,21.42
2022-12-11T10:31:49.288Z,20.42
2022-12-11T10:34:40.651Z,24.08
2022-12-11T10:37:07.095Z,20.65
2022-12-11T10:39:33.515Z,19.00
2022-12-11T10:41:59.973Z,19.00
2022-12-11T10:44:30.920Z,19.92
2022-12-11T10:49:38.756Z,18.92
2022-12-11T10:52:13.385Z,17.23
2022-12-11T10:54:41.621Z,19.55
2022-12-11T10:57:09.943Z,18.10
2022-12-11T10:59:45.139Z,17.92
2022-12-11T11:02:17.422Z,19.13
2022-12-11T11:04:44.807Z,17.58
2022-12-11T11:07:20.743Z,19.63
2022-12-11T11:09:48.284Z,18.00
2022-12-11T11:12:27.123Z,17.90
2022-12-11T11:15:10.433Z,18.45
2022-12-11T11:17:55.105Z,18.38
2022-12-11T11:20:25.839Z,18.35
2022-12-11T11:23:03.800Z,18.20
2022-12-11T11:25:32.473Z,18.27
2022-12-11T11:28:21.232Z,16.45
2022-12-11T11:30:57.876Z,18.15
2022-12-11T11:33:24.550Z,16.80
2022-12-11T11:36:00.257Z,16.77
2022-12-11T11:38:38.922Z,17.48
2022-12-11T11:41:40.949Z,17.88
2022-12-11T11:44:11.843Z,15.68
2022-12-11T11:46:43.084Z,16.23
2022-12-11T11:49:51.751Z,15.55
2022-12-11T11:52:39.447Z,16.63
2022-12-11T11:55:21.994Z,15.60
2022-12-11T11:58:05.071Z,15.95
2022-12-11T12:00:33.906Z,15.75
2022-12-11T12:03:03.831Z,15.55
2022-12-11T12:05:33.184Z,17.90
2022-12-11T12:08:08.511Z,18.92
2022-12-11T12:10:53.934Z,17.98
2022-12-11T12:13:49.083Z,18.73
2022-12-11T12:16:51.564Z,17.42
2022-12-11T12:19:38.182Z,18.45
2022-12-11T12:22:21.101Z,17.95
2022-12-11T12:25:07.101Z,18.75
2022-12-11T12:27:53.015Z,19.38
2022-12-11T12:30:22.805Z,20.60
2022-12-11T12:33:21.959Z,19.05
2022-12-11T12:36:06.778Z,16.75
2022-12-11T12:38:57.859Z,18.77
2022-12-11T12:41:47.105Z,16.83
2022-12-11T12:44:15.992Z,16.67
2022-12-11T12:46:53.766Z,16.42
2022-12-11T12:49:43.220Z,17.45
2022-12-11T12:52:19.032Z,17.42
2022-12-11T12:55:10.712Z,17.98
2022-12-11T12:57:39.253Z,17.55
2022-12-11T13:00:13.111Z,17.85
2022-12-11T13:02:50.542Z,18.73
2022-12-11T13:05:27.117Z,20.38
2022-12-11T13:07:56.679Z,19.42
2022-12-11T13:10:27.122Z,19.83
2022-12-11T13:12:53.832Z,21.02
2022-12-11T13:15:38.979Z,21.73
2022-12-11T13:18:34.772Z,21.65
2022-12-11T13:21:02.339Z,21.70
2022-12-11T13:23:31.378Z,22.20
2022-12-11T13:26:03.134Z,20.23
2022-12-11T13:28:34.235Z,21.70
2022-12-11T13:31:05.433Z,24.13
2022-12-11T13:33:32.472Z,26.23
2022-12-11T13:36:15.951Z,23.20
2022-12-11T13:38:52.341Z,21.88
2022-12-11T13:41:20.160Z,22.77
2022-12-11T13:43:49.028Z,22.38
2022-12-11T13:46:20.746Z,24.73
2022-12-11T13:48:55.381Z,21.55
2022-12-11T13:51:24.332Z,19.55
2022-12-11T13:54:04.789Z,21.45
2022-12-11T13:56:31.481Z,20.80
2022-12-11T13:58:57.902Z,19.58
2022-12-11T14:01:32.722Z,21.27
2022-12-11T14:04:07.421Z,21.98
2022-12-11T14:06:35.068Z,20.08
2022-12-11T14:09:03.199Z,23.38
2022-12-11T14:11:38.008Z,21.23
2022-12-11T14:14:18.185Z,23.42
2022-12-11T14:16:48.056Z,23.30
2022-12-11T14:19:15.263Z,23.30
2022-12-11T14:21:41.640Z,19.63
2022-12-11T14:24:12.507Z,20.58
2022-12-11T14:26:38.929Z,21.52
2022-12-11T14:29:06.392Z,21.65
2022-12-11T14:31:38.268Z,20.80
2022-12-11T14:34:33.124Z,21.60
2022-12-11T14:37:01.285Z,21.48
2022-12-11T14:39:45.082Z,20.17
2022-12-11T14:42:18.344Z,22.90
2022-12-11T14:44:50.254Z,20.35
2022-12-11T14:47:20.641Z,22.33
2022-12-11T14:49:51.097Z,22.55
2022-12-11T14:52:25.667Z,21.27
2022-12-11T14:55:19.669Z,22.50
2022-12-11T14:57:48.281Z,18.65
2022-12-11T15:00:23.497Z,20.98
2022-12-11T15:03:02.250Z,22.52
2022-12-11T15:05:29.657Z,21.45
2022-12-11T15:08:09.709Z,21.85
2022-12-11T15:10:38.607Z,22.42
2022-12-11T15:13:05.965Z,20.52
2022-12-11T15:15:46.123Z,23.08
2022-12-11T15:18:20.718Z,25.43
2022-12-11T15:20:51.512Z,25.58
2022-12-11T15:23:18.857Z,28.45
2022-12-11T15:25:59.463Z,26.25
2022-12-11T15:28:35.107Z,27.20
2022-12-11T15:31:05.284Z,26.17
2022-12-11T15:33:34.609Z,22.48
2022-12-11T15:36:06.688Z,21.90
2022-12-11T15:38:37.516Z,21.33
2022-12-11T15:41:04.413Z,21.50
2022-12-11T15:43:35.907Z,23.13
2022-12-11T15:46:03.918Z,28.42
2022-12-11T15:48:30.365Z,27.75
2022-12-11T15:50:57.027Z,25.52
2022-12-11T15:53:23.533Z,26.15
2022-12-11T15:55:50.840Z,22.27
2022-12-11T15:58:19.540Z,21.20
2022-12-11T16:00:46.410Z,21.38
2022-12-11T16:03:17.721Z,20.23
2022-12-11T16:05:44.685Z,21.20
2022-12-11T16:08:16.724Z,24.55
2022-12-11T16:10:44.484Z,20.10
2022-12-11T16:13:14.261Z,18.27
2022-12-11T16:15:43.155Z,19.45
2022-12-11T16:18:13.530Z,17.25
2022-12-11T16:20:42.200Z,18.42
2022-12-11T16:23:10.028Z,17.73
2022-12-11T16:25:41.240Z,17.95
2022-12-11T16:28:09.087Z,20.40
2022-12-11T16:30:36.993Z,24.50
2022-12-11T16:33:11.747Z,19.80
2022-12-11T16:35:39.286Z,18.15
2022-12-11T16:38:05.685Z,20.65
2022-12-11T16:40:32.141Z,17.98
2022-12-11T16:42:58.597Z,14.48
2022-12-11T16:45:26.405Z,17.85
2022-12-11T16:47:52.995Z,17.27
2022-12-11T16:50:19.637Z,20.10
2022-12-11T16:52:47.079Z,19.45
2022-12-11T16:55:14.853Z,21.08
2022-12-11T16:57:41.931Z,17.00
2022-12-11T17:00:11.949Z,19.98
2022-12-11T17:02:38.410Z,20.63
2022-12-11T17:05:05.288Z,18.77
2022-12-11T17:07:32.462Z,17.67
2022-12-11T17:10:00.596Z,18.15
2022-12-11T17:12:27.950Z,17.55
2022-12-11T17:14:55.379Z,16.27
2022-12-11T17:17:21.820Z,20.05
2022-12-11T17:19:48.272Z,19.85
2022-12-11T17:22:15.199Z,19.63
2022-12-11T17:24:41.616Z,19.27
2022-12-11T17:27:08.196Z,20.35
2022-12-11T17:29:34.679Z,21.17
2022-12-11T17:32:03.087Z,23.55
2022-12-11T17:34:36.081Z,21.83
2022-12-11T17:37:04.392Z,21.92
2022-12-11T17:39:32.184Z,21.95
2022-12-11T17:41:58.799Z,24.13
2022-12-11T17:44:26.557Z,19.65
2022-12-11T17:46:53.157Z,22.30
2022-12-11T17:49:19.836Z,20.77
2022-12-11T17:51:46.307Z,21.95
2022-12-11T17:54:12.809Z,20.25
2022-12-11T17:56:39.293Z,22.85
2022-12-11T17:59:05.813Z,19.95
2022-12-11T18:01:33.121Z,21.65
2022-12-11T18:04:01.683Z,19.95
2022-12-11T18:06:29.095Z,22.23
2022-12-11T18:08:55.927Z,20.92
2022-12-11T18:11:23.012Z,20.48
2022-12-11T18:13:51.077Z,20.63
2022-12-11T18:16:44.859Z,20.60
2022-12-11T18:19:11.378Z,26.38
2022-12-11T18:21:42.643Z,23.35
2022-12-11T18:24:09.809Z,23.35
2022-12-11T18:26:37.484Z,23.17
2022-12-11T18:29:04.005Z,22.90
2022-12-11T18:31:30.498Z,23.65
2022-12-11T18:33:57.205Z,22.80
2022-12-11T18:36:23.701Z,22.63
2022-12-11T18:38:50.159Z,25.63
2022-12-11T18:41:17.892Z,25.85
2022-12-11T18:43:44.890Z,25.38
2022-12-11T18:46:14.208Z,24.83
2022-12-11T18:48:42.084Z,22.02
2022-12-11T18:51:10.980Z,23.17
2022-12-11T18:53:39.387Z,27.48
2022-12-11T18:56:08.382Z,27.05
2022-12-11T18:58:34.819Z,27.17
2022-12-11T19:01:25.192Z,27.70
2022-12-11T19:03:58.860Z,25.23
2022-12-11T19:06:30.184Z,22.27
2022-12-11T19:08:57.600Z,23.00
2022-12-11T19:11:26.648Z,21.95
2022-12-11T19:13:54.761Z,21.08
2022-12-11T19:16:26.978Z,20.75
2022-12-11T19:18:54.034Z,22.65
2022-12-11T19:21:20.461Z,20.92
2022-12-11T19:23:47.717Z,21.50
2022-12-11T19:26:16.722Z,23.55
2022-12-11T19:28:43.276Z,24.63
2022-12-11T19:31:23.065Z,23.42
2022-12-11T19:33:49.752Z,21.52
2022-12-11T19:36:19.705Z,21.73
2022-12-11T19:38:46.382Z,20.17
2022-12-11T19:41:18.442Z,23.83
2022-12-11T19:43:48.942Z,23.23
2022-12-11T19:46:15.856Z,21.88
2022-12-11T19:48:42.558Z,25.52
2022-12-11T19:51:21.605Z,26.33
2022-12-11T19:53:49.016Z,24.45
2022-12-11T19:56:16.341Z,25.98
2022-12-11T19:58:42.784Z,25.55
2022-12-11T20:01:10.447Z,23.73
2022-12-11T20:03:36.993Z,21.50
2022-12-11T20:06:09.467Z,24.75
2022-12-11T20:08:44.759Z,22.45
2022-12-11T20:11:17.632Z,22.08
2022-12-11T20:13:45.904Z,26.10
2022-12-11T20:16:13.451Z,32.88
2022-12-11T20:18:40.074Z,22.77
2022-12-11T20:21:08.810Z,22.95
2022-12-11T20:23:35.521Z,22.80
2022-12-11T20:26:32.519Z,23.15
2022-12-11T20:28:59.058Z,23.15
2022-12-11T20:31:26.253Z,21.88
2022-12-11T20:33:53.569Z,23.15
2022-12-11T20:36:22.178Z,21.98
2022-12-11T20:38:49.112Z,22.05
2022-12-11T20:41:19.215Z,21.52
2022-12-11T20:43:45.733Z,24.00
2022-12-11T20:46:14.950Z,23.08
2022-12-11T20:48:42.651Z,22.90
2022-12-11T20:51:10.427Z,23.80
2022-12-11T20:53:37.262Z,23.60
2022-12-11T20:56:18.285Z,22.55
2022-12-11T21:01:20.966Z,21.20
2022-12-11T21:03:47.791Z,22.25
2022-12-11T21:06:21.755Z,21.30
2022-12-11T21:08:48.678Z,21.10
2022-12-11T21:11:15.096Z,21.50
2022-12-11T21:13:41.557Z,20.75
2022-12-11T21:16:08.932Z,20.00
2022-12-11T21:18:35.390Z,19.60
2022-12-11T21:21:02.156Z,18.63
2022-12-11T21:23:28.564Z,21.70
2022-12-11T21:25:54.977Z,22.63
2022-12-11T21:28:23.624Z,22.38
2022-12-11T21:30:51.665Z,21.67
2022-12-11T21:33:18.091Z,21.17
2022-12-11T21:35:44.686Z,19.75
2022-12-11T21:38:11.061Z,22.00
2022-12-11T21:40:37.475Z,19.50
2022-12-11T21:43:03.953Z,19.52
2022-12-11T21:48:20.431Z,20.02
2022-12-11T21:50:46.850Z,19.42
2022-12-11T21:53:13.358Z,17.77
2022-12-11T21:55:41.570Z,18.20
2022-12-11T21:58:08.889Z,21.27
2022-12-11T22:00:37.345Z,19.05
2022-12-11T22:03:04.243Z,21.55
2022-12-11T22:05:30.752Z,21.08
2022-12-11T22:07:57.168Z,21.05
2022-12-11T22:10:23.656Z,20.10
2022-12-11T22:12:50.299Z,22.55
2022-12-11T22:15:16.749Z,20.08
2022-12-11T22:17:43.158Z,19.58
2022-12-11T22:20:09.836Z,20.83
2022-12-11T22:22:36.520Z,22.23
2022-12-11T22:25:06.759Z,24.77
2022-12-11T22:27:33.756Z,25.98
2022-12-11T22:30:00.153Z,24.13
2022-12-11T22:32:27.416Z,22.30
2022-12-11T22:34:53.864Z,23.67
2022-12-11T22:37:20.299Z,19.13
2022-12-11T22:39:46.757Z,22.10
2022-12-11T22:42:13.316Z,22.25
2022-12-11T22:44:39.729Z,22.95
2022-12-11T22:47:06.337Z,20.25
2022-12-11T22:49:32.726Z,19.95
2022-12-11T22:51:59.123Z,20.17
2022-12-11T22:54:25.812Z,19.45
2022-12-11T22:56:52.300Z,19.83
2022-12-11T22:59:18.713Z,19.85
2022-12-11T23:01:45.162Z,19.77
2022-12-11T23:04:11.624Z,22.98
2022-12-11T23:06:38.295Z,24.77
2022-12-11T23:09:04.737Z,24.27
2022-12-11T23:11:37.188Z,21.85
2022-12-11T23:14:05.602Z,21.77
2022-12-11T23:16:32.257Z,21.90
2022-12-11T23:18:58.981Z,24.50
2022-12-11T23:21:26.822Z,20.55
2022-12-11T23:23:53.891Z,22.77
2022-12-11T23:26:20.859Z,20.08
2022-12-11T23:28:47.770Z,19.23
2022-12-11T23:31:14.714Z,18.60
2022-12-11T23:33:41.206Z,19.27
2022-12-11T23:36:08.354Z,18.85
2022-12-11T23:38:35.019Z,18.85
2022-12-11T23:41:02.474Z,20.42
2022-12-11T23:43:28.974Z,18.02
2022-12-11T23:45:55.509Z,20.17
2022-12-11T23:48:22.053Z,19.13
2022-12-11T23:50:48.627Z,19.35
2022-12-11T23:53:15.040Z,18.73
2022-12-11T23:55:43.402Z,22.30
2022-12-11T23:58:10.753Z,21.27
